SAST,Max TemperatureF,Mean TemperatureF,Min TemperatureF,Max Dew PointF,MeanDew PointF,Min DewpointF,Max Humidity, Mean Humidity, Min Humidity, Max Sea Level PressureIn, Mean Sea Level PressureIn, Min Sea Level PressureIn, Max VisibilityMiles, Mean VisibilityMiles, Min VisibilityMiles, Max Wind SpeedMPH, Mean Wind SpeedMPH, Max Gust SpeedMPH,PrecipitationIn, CloudCover, Events, WindDirDegrees
2012-10-1,68,58,47,55,52,46,94,81,54,30.10,30.04,29.98,12,8,6,13,5,,0.00,6,,266
2012-10-2,68,58,48,57,52,46,94,78,57,30.08,30.01,29.92,12,8,6,12,4,,0.00,4,,185
2012-10-3,68,62,55,55,52,46,94,74,43,30.01,29.95,29.89,12,7,2,12,7,,0.04,5,,239
2012-10-4,67,60,52,52,48,45,94,76,48,30.15,30.04,29.98,12,7,6,21,13,,0.04,6,Rain,251
2012-10-5,61,55,49,48,46,43,88,71,50,30.15,30.10,30.04,19,8,6,9,6,,0.00,6,,245
2012-10-6,63,56,48,46,44,42,82,65,43,30.09,30.06,30.01,19,8,6,10,7,,0.00,4,,271
2012-10-7,64,56,48,46,43,39,87,61,35,30.31,30.17,30.04,19,8,6,18,10,,0.01,6,Rain,271
2012-10-8,60,54,49,54,50,45,94,84,62,30.33,30.21,30.12,19,7,2,21,8,,0.24,5,Rain,104
2012-10-9,65,59,53,59,54,50,94,86,76,30.15,30.04,29.86,12,6,2,25,11,40,0.31,6,Rain-Thunderstorm,98
2012-10-10,63,56,50,51,47,43,94,72,41,30.19,30.13,30.06,19,8,6,14,7,,0.00,5,,262
2012-10-11,64,58,50,48,47,45,87,70,46,30.27,30.19,30.15,19,8,6,10,4,,0.00,3,,257
2012-10-12,68,56,45,52,48,42,88,70,49,30.27,30.21,30.15,19,13,6,12,4,,0.00,1,,85
2012-10-13,64,56,47,54,50,45,88,77,54,30.23,30.18,30.15,19,8,6,10,5,,0.00,5,,246
2012-10-14,69,59,49,61,54,46,94,78,53,30.15,30.06,30.01,12,7,1,18,5,,0.04,5,Fog-Rain,123
2012-10-15,63,61,59,61,59,57,100,93,88,30.12,30.04,29.98,6,2,0,20,9,,0.12,7,Fog-Rain,144
2012-10-16,64,49,34,57,56,54,94,85,75,30.19,30.12,30.06,12,6,4,25,16,36,0.00,7,,100
2012-10-17,63,60,57,60,57,55,94,88,73,30.06,29.99,29.95,6,5,2,26,7,43,0.24,7,Rain,194
2012-10-18,69,60,52,59,55,50,94,85,59,30.01,29.91,29.86,12,6,2,17,8,,0.67,5,Rain,256
2012-10-19,64,57,50,52,46,41,94,71,38,30.12,29.99,29.89,12,7,2,20,12,,0.00,5,Rain,275
2012-10-20,59,54,48,54,51,46,94,87,81,30.21,30.16,30.12,19,7,4,16,7,28,0.43,6,Rain,295
2012-10-21,65,60,54,57,54,52,94,83,60,30.15,30.03,29.98,12,6,2,20,10,,0.08,6,Rain,211
2012-10-22,66,60,55,56,54,52,94,81,60,30.29,30.18,30.06,19,7,3,16,10,,0.00,6,Rain,235
2012-10-23,67,60,53,54,52,48,88,74,45,30.31,30.27,30.24,19,8,6,17,7,,0.01,4,Rain,82
2012-10-24,67,58,50,57,52,48,94,76,48,30.27,30.12,29.95,12,8,6,25,11,,0.00,1,,96
2012-10-25,83,66,50,58,54,48,94,72,34,29.98,29.83,29.77,12,8,6,16,6,,0.00,5,,228
2012-10-26,65,59,53,55,52,46,94,81,58,30.23,30.09,29.95,19,6,2,15,7,,0.12,5,Rain,269
2012-10-27,66,58,51,54,52,48,94,78,54,30.21,30.12,30.04,12,7,4,17,8,,0.00,3,,101
2012-10-28,69,59,49,59,53,48,94,81,51,30.10,30.07,30.04,12,7,3,10,5,,0.00,3,Fog,243
2012-10-29,64,59,54,59,56,54,94,88,68,30.22,30.13,30.04,12,6,1,18,11,,0.59,6,Rain,258
2012-10-30,65,61,57,58,56,54,94,84,71,30.36,30.28,30.21,12,7,3,16,13,,0.02,6,Rain,144
2012-10-31,65,58,51,54,51,48,88,75,53,30.36,30.32,30.27,12,8,6,20,8,25,0.00,5,,93